createdAt,value
2022-12-02T00:02:00.656Z,24.55
2022-12-02T00:04:29.083Z,23.55
2022-12-02T00:06:58.412Z,24.92
2022-12-02T00:09:35.658Z,24.75
2022-12-02T00:12:26.167Z,24.70
2022-12-02T00:15:42.727Z,23.45
2022-12-02T00:18:12.500Z,23.02
2022-12-02T00:20:40.487Z,25.42
2022-12-02T00:23:07.932Z,25.60
2022-12-02T00:25:35.459Z,24.08
2022-12-02T00:28:03.251Z,27.05
2022-12-02T00:30:30.401Z,24.27
2022-12-02T00:32:57.543Z,26.17
2022-12-02T00:35:24.993Z,25.38
2022-12-02T00:37:52.664Z,25.30
2022-12-02T00:40:19.954Z,25.38
2022-12-02T00:42:47.179Z,24.77
2022-12-02T00:45:33.798Z,25.65
2022-12-02T00:48:01.465Z,25.52
2022-12-02T00:50:29.374Z,24.13
2022-12-02T00:52:57.042Z,25.27
2022-12-02T00:55:24.136Z,25.33
2022-12-02T00:57:51.055Z,24.48
2022-12-02T01:00:18.549Z,25.88
2022-12-02T01:02:45.675Z,25.55
2022-12-02T01:05:12.582Z,25.30
2022-12-02T01:07:40.058Z,25.75
2022-12-02T01:10:07.725Z,26.42
2022-12-02T01:12:35.096Z,25.23
2022-12-02T01:15:02.193Z,25.83
2022-12-02T01:17:29.083Z,25.88
2022-12-02T01:19:56.097Z,25.35
2022-12-02T01:22:23.281Z,25.40
2022-12-02T01:24:51.545Z,25.75
2022-12-02T01:27:18.862Z,25.40
2022-12-02T01:29:45.855Z,26.17
2022-12-02T01:32:12.769Z,24.25
2022-12-02T01:34:41.577Z,24.98
2022-12-02T01:37:08.973Z,25.85
2022-12-02T01:39:36.283Z,24.20
2022-12-02T01:42:03.511Z,24.73
2022-12-02T01:44:30.750Z,25.88
2022-12-02T01:46:58.257Z,25.77
2022-12-02T01:49:25.394Z,26.17
2022-12-02T01:51:52.586Z,25.15
2022-12-02T01:54:19.593Z,23.92
2022-12-02T01:56:46.523Z,23.92
2022-12-02T01:59:16.253Z,25.20
2022-12-02T02:01:43.867Z,22.95
2022-12-02T02:04:12.005Z,23.20
2022-12-02T02:06:43.474Z,25.25
2022-12-02T02:09:10.762Z,24.63
2022-12-02T02:11:39.625Z,24.83
2022-12-02T02:14:11.864Z,24.40
2022-12-02T02:16:40.573Z,23.42
2022-12-02T02:19:13.078Z,23.92
2022-12-02T02:21:47.428Z,26.48
2022-12-02T02:24:14.453Z,24.08
2022-12-02T02:26:41.739Z,24.42
2022-12-02T02:29:09.206Z,25.13
2022-12-02T02:31:37.535Z,25.20
2022-12-02T02:34:04.924Z,23.58
2022-12-02T02:36:33.636Z,23.38
2022-12-02T02:39:02.014Z,23.90
2022-12-02T02:41:29.471Z,25.08
2022-12-02T02:43:57.243Z,23.73
2022-12-02T02:46:24.721Z,22.70
2022-12-02T02:48:51.795Z,23.45
2022-12-02T02:51:20.184Z,22.95
2022-12-02T02:53:47.238Z,22.33
2022-12-02T02:56:15.463Z,22.58
2022-12-02T02:58:43.529Z,23.48
2022-12-02T03:01:19.925Z,23.45
2022-12-02T03:04:00.863Z,21.85
2022-12-02T03:06:30.341Z,23.17
2022-12-02T03:08:58.199Z,23.10
2022-12-02T03:11:27.060Z,23.90
2022-12-02T03:13:55.961Z,23.83
2022-12-02T03:16:25.205Z,21.67
2022-12-02T03:18:53.963Z,23.63
2022-12-02T03:21:21.986Z,22.40
2022-12-02T03:23:51.556Z,21.90
2022-12-02T03:26:18.702Z,23.42
2022-12-02T03:28:47.360Z,21.30
2022-12-02T03:31:14.980Z,22.60
2022-12-02T03:33:42.858Z,20.05
2022-12-02T03:36:10.624Z,20.73
2022-12-02T03:38:38.314Z,20.75
2022-12-02T03:41:07.449Z,21.85
2022-12-02T03:43:34.843Z,21.20
2022-12-02T03:46:04.345Z,22.38
2022-12-02T03:48:31.613Z,20.15
2022-12-02T03:50:58.924Z,19.52
2022-12-02T03:53:26.528Z,19.75
2022-12-02T03:55:53.591Z,19.95
2022-12-02T03:58:20.512Z,21.33
2022-12-02T04:00:47.877Z,19.17
2022-12-02T04:03:14.922Z,20.33
2022-12-02T04:05:49.068Z,19.15
2022-12-02T04:08:16.662Z,19.48
2022-12-02T04:10:43.544Z,19.52
2022-12-02T04:13:10.692Z,18.25
2022-12-02T04:15:37.539Z,18.35
2022-12-02T04:18:04.606Z,18.48
2022-12-02T04:20:31.486Z,18.33
2022-12-02T04:22:58.489Z,17.85
2022-12-02T04:25:25.324Z,19.10
2022-12-02T04:27:52.397Z,18.38
2022-12-02T04:30:19.407Z,18.52
2022-12-02T04:32:46.441Z,18.20
2022-12-02T04:35:13.516Z,17.45
2022-12-02T04:37:40.497Z,17.58
2022-12-02T04:40:08.435Z,17.52
2022-12-02T04:42:35.393Z,16.90
2022-12-02T04:45:03.914Z,18.58
2022-12-02T04:47:31.711Z,16.70
2022-12-02T04:49:58.901Z,17.20
2022-12-02T04:52:25.891Z,17.08
2022-12-02T04:54:53.087Z,17.55
2022-12-02T04:57:20.426Z,16.48
2022-12-02T04:59:47.424Z,17.95
2022-12-02T05:02:14.555Z,17.75
2022-12-02T05:04:41.505Z,18.13
2022-12-02T05:07:08.614Z,16.45
2022-12-02T05:09:35.892Z,16.83
2022-12-02T05:12:02.947Z,15.75
2022-12-02T05:14:30.318Z,15.13
2022-12-02T05:16:57.655Z,16.55
2022-12-02T05:19:24.988Z,15.95
2022-12-02T05:21:51.903Z,14.88
2022-12-02T05:24:18.947Z,14.82
2022-12-02T05:26:45.874Z,14.18
2022-12-02T05:29:12.858Z,14.75
2022-12-02T05:31:40.437Z,14.85
2022-12-02T05:34:07.443Z,14.50
2022-12-02T05:36:34.536Z,15.27
2022-12-02T05:39:01.495Z,14.90
2022-12-02T05:41:28.533Z,13.50
2022-12-02T05:43:57.748Z,14.20
2022-12-02T05:46:24.847Z,14.50
2022-12-02T05:48:52.139Z,14.93
2022-12-02T05:51:21.660Z,13.65
2022-12-02T05:53:50.965Z,13.57
2022-12-02T05:56:27.787Z,13.65
2022-12-02T05:59:02.444Z,13.57
2022-12-02T06:01:39.164Z,13.90
2022-12-02T06:04:23.147Z,13.95
2022-12-02T06:06:53.526Z,14.93
2022-12-02T06:09:29.115Z,14.20
2022-12-02T06:11:58.015Z,15.13
2022-12-02T06:14:31.415Z,14.82
2022-12-02T06:17:02.596Z,14.48
2022-12-02T06:19:53.580Z,14.32
2022-12-02T06:22:30.785Z,12.80
2022-12-02T06:25:02.087Z,13.70
2022-12-02T06:27:29.591Z,14.43
2022-12-02T06:30:02.238Z,13.80
2022-12-02T06:32:42.796Z,14.38
2022-12-02T06:35:30.342Z,13.98
2022-12-02T06:38:01.048Z,14.13
2022-12-02T06:40:36.911Z,14.35
2022-12-02T06:43:16.120Z,14.00
2022-12-02T06:45:45.973Z,14.95
2022-12-02T06:48:33.674Z,14.65
2022-12-02T06:51:18.534Z,13.88
2022-12-02T06:53:46.702Z,13.75
2022-12-02T06:56:28.411Z,15.93
2022-12-02T06:59:04.782Z,14.40
2022-12-02T07:04:40.773Z,13.68
2022-12-02T07:07:21.344Z,15.57
2022-12-02T07:10:00.863Z,15.20
2022-12-02T07:12:33.018Z,15.52
2022-12-02T07:15:17.090Z,15.50
2022-12-02T07:17:44.782Z,15.63
2022-12-02T07:20:36.409Z,15.00
2022-12-02T07:23:21.076Z,15.85
2022-12-02T07:25:55.104Z,15.68
2022-12-02T07:28:33.360Z,15.05
2022-12-02T07:31:03.392Z,16.17
2022-12-02T07:33:30.658Z,15.93
2022-12-02T07:35:57.827Z,15.85
2022-12-02T07:38:57.086Z,15.80
2022-12-02T07:41:13.584Z,15.82
2022-12-02T07:43:40.814Z,14.65
2022-12-02T07:46:07.770Z,15.55
2022-12-02T07:48:34.900Z,14.63
2022-12-02T07:51:01.769Z,15.25
2022-12-02T07:53:28.691Z,14.88
2022-12-02T07:55:56.022Z,15.25
2022-12-02T07:58:32.559Z,14.50
2022-12-02T08:01:10.637Z,15.05
2022-12-02T08:03:40.571Z,14.35
2022-12-02T08:06:07.655Z,14.23
2022-12-02T08:08:34.877Z,15.52
2022-12-02T08:11:02.074Z,14.60
2022-12-02T08:13:29.054Z,13.68
2022-12-02T08:15:55.953Z,13.63
2022-12-02T08:18:22.962Z,15.05
2022-12-02T08:20:50.012Z,15.43
2022-12-02T08:23:16.913Z,15.32
2022-12-02T08:25:43.999Z,14.50
2022-12-02T08:28:10.959Z,14.82
2022-12-02T08:30:38.310Z,15.35
2022-12-02T08:33:05.330Z,14.80
2022-12-02T08:35:32.281Z,15.60
2022-12-02T08:37:59.920Z,16.42
2022-12-02T08:40:26.946Z,15.13
2022-12-02T08:42:53.904Z,14.48
2022-12-02T08:45:20.980Z,14.65
2022-12-02T08:47:47.878Z,15.52
2022-12-02T08:50:15.456Z,16.23
2022-12-02T08:52:42.393Z,15.18
2022-12-02T08:55:09.370Z,16.10
2022-12-02T08:57:36.390Z,15.77
2022-12-02T09:00:06.731Z,15.40
2022-12-02T09:02:34.326Z,15.80
2022-12-02T09:05:01.261Z,16.27
2022-12-02T09:07:28.337Z,17.20
2022-12-02T09:09:55.319Z,14.45
2022-12-02T09:12:22.579Z,16.23
2022-12-02T09:14:49.824Z,16.65
2022-12-02T09:17:17.031Z,15.77
2022-12-02T09:19:44.169Z,14.75
2022-12-02T09:22:11.400Z,16.17
2022-12-02T09:24:38.420Z,17.17
2022-12-02T09:27:05.305Z,16.88
2022-12-02T09:29:33.901Z,16.25
2022-12-02T09:32:01.267Z,17.65
2022-12-02T09:34:28.179Z,18.70
2022-12-02T09:36:55.609Z,17.67
2022-12-02T09:39:22.563Z,17.25
2022-12-02T09:41:49.757Z,16.02
2022-12-02T09:44:16.863Z,17.13
2022-12-02T09:46:43.946Z,16.45
2022-12-02T09:49:11.465Z,15.38
2022-12-02T09:51:38.837Z,17.90
2022-12-02T09:54:05.778Z,16.23
2022-12-02T09:56:32.983Z,16.80
2022-12-02T09:59:00.207Z,17.45
2022-12-02T10:01:27.948Z,17.75
2022-12-02T10:03:55.299Z,16.45
2022-12-02T10:06:28.901Z,16.05
2022-12-02T10:08:57.683Z,17.20
2022-12-02T10:11:35.008Z,16.85
2022-12-02T10:14:06.877Z,16.45
2022-12-02T10:16:35.160Z,16.60
2022-12-02T10:19:05.131Z,16.42
2022-12-02T10:21:33.615Z,16.88
2022-12-02T10:24:09.615Z,17.35
2022-12-02T10:26:52.328Z,17.85
2022-12-02T10:29:39.479Z,17.80
2022-12-02T10:32:25.321Z,18.05
2022-12-02T10:35:11.833Z,19.83
2022-12-02T10:37:39.155Z,19.55
2022-12-02T10:40:26.898Z,19.70
2022-12-02T10:43:11.332Z,17.45
2022-12-02T10:45:38.276Z,19.88
2022-12-02T10:48:17.546Z,19.25
2022-12-02T10:50:45.152Z,18.60
2022-12-02T10:53:18.412Z,19.98
2022-12-02T10:55:48.574Z,19.85
2022-12-02T10:58:24.558Z,19.85
2022-12-02T11:00:52.270Z,18.73
2022-12-02T11:03:20.464Z,20.90
2022-12-02T11:05:47.952Z,19.90
2022-12-02T11:08:24.636Z,20.60
2022-12-02T11:11:14.756Z,19.45
2022-12-02T11:14:02.221Z,20.25
2022-12-02T11:16:29.192Z,21.35
2022-12-02T11:19:33.319Z,19.77
2022-12-02T11:22:00.989Z,19.70
2022-12-02T11:24:30.804Z,20.33
2022-12-02T11:27:01.000Z,20.73
2022-12-02T11:29:31.340Z,21.45
2022-12-02T11:32:38.000Z,21.13
2022-12-02T11:35:19.397Z,20.92
2022-12-02T11:37:48.266Z,20.65
2022-12-02T11:40:18.175Z,20.90
2022-12-02T11:42:46.388Z,21.15
2022-12-02T11:45:16.290Z,19.73
2022-12-02T11:48:00.201Z,21.38
2022-12-02T11:50:27.097Z,20.83
2022-12-02T11:52:58.069Z,21.90
2022-12-02T11:55:36.357Z,20.90
2022-12-02T11:58:04.719Z,20.70
2022-12-02T12:00:38.168Z,19.67
2022-12-02T12:03:16.897Z,19.52
2022-12-02T12:06:08.679Z,21.42
2022-12-02T12:08:38.778Z,18.75
2022-12-02T12:11:35.325Z,20.63
2022-12-02T12:14:11.499Z,22.15
2022-12-02T12:16:50.337Z,20.40
2022-12-02T12:19:17.190Z,21.80
2022-12-02T12:21:54.122Z,22.35
2022-12-02T12:24:22.455Z,21.58
2022-12-02T12:26:54.980Z,21.90
2022-12-02T12:29:25.871Z,23.00
2022-12-02T12:31:53.802Z,22.20
2022-12-02T12:34:21.917Z,22.77
2022-12-02T12:36:49.432Z,21.95
2022-12-02T12:39:17.455Z,21.98
2022-12-02T12:42:01.748Z,23.45
2022-12-02T12:44:32.374Z,21.35
2022-12-02T12:47:05.394Z,21.58
2022-12-02T12:49:34.544Z,21.45
2022-12-02T12:52:02.383Z,21.30
2022-12-02T12:54:29.803Z,22.38
2022-12-02T12:56:56.878Z,20.23
2022-12-02T12:59:23.915Z,20.90
2022-12-02T13:01:50.933Z,21.08
2022-12-02T13:04:18.217Z,20.35
2022-12-02T13:06:46.938Z,24.10
2022-12-02T13:09:15.485Z,20.73
2022-12-02T13:11:42.881Z,21.30
2022-12-02T13:14:09.874Z,19.92
2022-12-02T13:16:36.995Z,21.52
2022-12-02T13:19:03.932Z,21.63
2022-12-02T13:21:31.039Z,21.02
2022-12-02T13:23:58.002Z,21.05
2022-12-02T13:26:25.083Z,22.58
2022-12-02T13:28:54.689Z,21.33
2022-12-02T13:31:22.146Z,22.05
2022-12-02T13:33:49.506Z,23.05
2022-12-02T13:36:16.499Z,20.70
2022-12-02T13:38:43.811Z,20.65
2022-12-02T13:41:10.997Z,22.65
2022-12-02T13:43:38.264Z,22.30
2022-12-02T13:46:06.028Z,25.85
2022-12-02T13:48:33.214Z,21.67
2022-12-02T13:51:02.585Z,21.45
2022-12-02T13:53:29.715Z,20.83
2022-12-02T13:55:56.615Z,17.85
2022-12-02T13:58:25.167Z,18.98
2022-12-02T14:00:52.604Z,20.05
2022-12-02T14:03:19.579Z,18.98
2022-12-02T14:05:46.866Z,19.40
2022-12-02T14:08:13.940Z,18.95
2022-12-02T14:10:41.186Z,21.02
2022-12-02T14:13:15.944Z,21.00
2022-12-02T14:15:45.502Z,19.58
2022-12-02T14:18:13.652Z,23.00
2022-12-02T14:20:41.037Z,21.73
2022-12-02T14:23:08.939Z,22.45
2022-12-02T14:25:42.989Z,21.00
2022-12-02T14:28:10.079Z,22.30
2022-12-02T14:30:36.925Z,21.65
2022-12-02T14:33:03.987Z,24.05
2022-12-02T14:35:30.926Z,24.52
2022-12-02T14:37:58.020Z,25.17
2022-12-02T14:40:25.094Z,24.58
2022-12-02T14:42:52.177Z,24.90
2022-12-02T14:45:19.058Z,24.00
2022-12-02T14:47:46.179Z,23.38
2022-12-02T14:50:13.299Z,23.55
2022-12-02T14:52:40.222Z,23.58
2022-12-02T14:55:07.759Z,24.45
2022-12-02T14:57:34.665Z,24.27
2022-12-02T15:00:01.911Z,24.15
2022-12-02T15:02:28.905Z,23.08
2022-12-02T15:04:55.874Z,23.38
2022-12-02T15:07:23.034Z,23.48
2022-12-02T15:09:50.025Z,22.80
2022-12-02T15:12:17.292Z,21.48
2022-12-02T15:14:44.364Z,21.42
2022-12-02T15:17:11.320Z,22.52
2022-12-02T15:19:38.432Z,21.83
2022-12-02T15:22:05.378Z,21.75
2022-12-02T15:24:32.589Z,20.55
2022-12-02T15:27:02.335Z,20.10
2022-12-02T15:29:29.975Z,20.17
2022-12-02T15:31:57.027Z,19.40
2022-12-02T15:34:24.097Z,20.13
2022-12-02T15:36:51.246Z,19.70
2022-12-02T15:39:18.146Z,20.80
2022-12-02T15:41:45.136Z,19.80
2022-12-02T15:44:12.020Z,19.17
2022-12-02T15:46:39.144Z,19.88
2022-12-02T15:49:06.102Z,19.92
2022-12-02T15:51:33.004Z,21.35
2022-12-02T15:54:00.187Z,20.52
2022-12-02T15:56:29.293Z,19.70
2022-12-02T15:58:56.337Z,20.55
2022-12-02T16:01:23.363Z,20.25
2022-12-02T16:03:50.656Z,19.42
2022-12-02T16:06:17.561Z,21.10
2022-12-02T16:08:44.925Z,22.38
2022-12-02T16:11:12.154Z,22.15
2022-12-02T16:13:39.317Z,21.13
2022-12-02T16:16:06.512Z,21.38
2022-12-02T16:18:33.479Z,20.92
2022-12-02T16:21:00.427Z,22.02
2022-12-02T16:23:27.564Z,21.27
2022-12-02T16:25:54.507Z,21.58
2022-12-02T16:28:24.177Z,21.42
2022-12-02T16:30:51.227Z,21.73
2022-12-02T16:33:18.253Z,21.20
2022-12-02T16:35:45.506Z,20.55
2022-12-02T16:38:12.651Z,21.67
2022-12-02T16:40:39.622Z,22.88
2022-12-02T16:43:06.886Z,22.42
2022-12-02T16:45:33.833Z,22.35
2022-12-02T16:48:00.978Z,22.38
2022-12-02T16:50:28.051Z,23.58
2022-12-02T16:52:55.093Z,24.02
2022-12-02T16:55:21.987Z,22.70
2022-12-02T16:57:49.516Z,23.20
2022-12-02T17:00:16.811Z,22.55
2022-12-02T17:02:43.978Z,23.63
2022-12-02T17:05:11.236Z,24.45
2022-12-02T17:07:38.281Z,23.75
2022-12-02T17:10:06.483Z,23.90
2022-12-02T17:12:33.402Z,22.98
2022-12-02T17:15:01.255Z,24.80
2022-12-02T17:17:45.543Z,25.52
2022-12-02T17:20:14.554Z,24.73
2022-12-02T17:22:43.605Z,23.83
2022-12-02T17:25:12.863Z,22.92
2022-12-02T17:27:41.181Z,23.95
2022-12-02T17:30:10.125Z,25.30
2022-12-02T17:32:37.448Z,24.92
2022-12-02T17:35:05.107Z,27.33
2022-12-02T17:37:32.639Z,26.95
2022-12-02T17:39:59.671Z,26.73
2022-12-02T17:42:26.892Z,25.75
2022-12-02T17:44:54.466Z,29.83
2022-12-02T17:47:21.751Z,28.30
2022-12-02T17:49:48.690Z,26.17
2022-12-02T17:52:20.533Z,27.23
2022-12-02T17:54:48.700Z,27.98
2022-12-02T17:57:16.008Z,29.27
2022-12-02T17:59:43.257Z,27.00
2022-12-02T18:02:11.445Z,27.52
2022-12-02T18:04:43.678Z,24.48
2022-12-02T18:07:11.923Z,26.02
2022-12-02T18:09:39.903Z,25.08
2022-12-02T18:12:07.903Z,25.92
2022-12-02T18:14:35.572Z,25.45
2022-12-02T18:17:06.345Z,23.92
2022-12-02T18:19:33.315Z,24.85
2022-12-02T18:22:00.394Z,22.63
2022-12-02T18:24:27.366Z,24.08
2022-12-02T18:26:54.536Z,26.58
2022-12-02T18:29:21.751Z,26.40
2022-12-02T18:31:49.037Z,27.90
2022-12-02T18:34:16.266Z,26.05
2022-12-02T18:36:43.205Z,27.67
2022-12-02T18:39:10.299Z,27.27
2022-12-02T18:41:37.160Z,28.35
2022-12-02T18:44:04.187Z,27.15
2022-12-02T18:46:31.394Z,28.40
2022-12-02T18:48:58.372Z,27.67
2022-12-02T18:51:25.562Z,28.00
2022-12-02T18:53:52.547Z,28.63
2022-12-02T18:56:24.089Z,26.38
2022-12-02T18:58:54.099Z,27.83
2022-12-02T19:01:21.140Z,28.67
2022-12-02T19:03:49.197Z,27.25
2022-12-02T19:06:16.441Z,30.27
2022-12-02T19:08:43.348Z,30.48
2022-12-02T19:11:10.617Z,29.70
2022-12-02T19:13:37.601Z,28.65
2022-12-02T19:16:05.038Z,28.40
2022-12-02T19:18:32.889Z,29.50
2022-12-02T19:21:01.983Z,28.98
2022-12-02T19:23:29.307Z,30.35
2022-12-02T19:25:56.256Z,31.20
2022-12-02T19:28:23.713Z,32.42
2022-12-02T19:30:50.731Z,30.23
2022-12-02T19:33:18.295Z,31.27
2022-12-02T19:35:45.526Z,30.92
2022-12-02T19:38:15.342Z,31.63
2022-12-02T19:40:45.557Z,32.67
2022-12-02T19:43:14.248Z,31.67
2022-12-02T19:45:42.062Z,29.85
2022-12-02T19:48:09.350Z,30.52
2022-12-02T19:50:36.398Z,28.77
2022-12-02T19:53:03.321Z,30.40
2022-12-02T19:55:30.221Z,36.33
2022-12-02T19:57:57.540Z,30.23
2022-12-02T20:00:24.590Z,30.70
2022-12-02T20:02:51.640Z,30.08
2022-12-02T20:05:23.609Z,32.00
2022-12-02T20:07:50.642Z,30.45
2022-12-02T20:10:18.691Z,30.13
2022-12-02T20:12:46.044Z,30.17
2022-12-02T20:15:14.279Z,29.10
2022-12-02T20:17:42.192Z,32.15
2022-12-02T20:20:15.656Z,29.73
2022-12-02T20:22:43.439Z,30.55
2022-12-02T20:25:11.116Z,29.75
2022-12-02T20:27:38.670Z,29.00
2022-12-02T20:30:08.654Z,29.95
2022-12-02T20:32:37.814Z,28.80
2022-12-02T20:35:05.526Z,30.75
2022-12-02T20:37:32.466Z,30.80
2022-12-02T20:39:59.688Z,29.90
2022-12-02T20:42:26.668Z,30.13
2022-12-02T20:44:53.783Z,29.35
2022-12-02T20:47:21.098Z,35.17
2022-12-02T20:49:48.434Z,29.55
2022-12-02T20:52:15.644Z,29.25
2022-12-02T20:54:43.154Z,28.50
2022-12-02T20:57:13.853Z,29.10
2022-12-02T20:59:41.028Z,30.00
2022-12-02T21:02:13.264Z,30.33
2022-12-02T21:04:40.297Z,29.67
2022-12-02T21:07:09.697Z,29.65
2022-12-02T21:09:39.256Z,39.08
2022-12-02T21:12:07.299Z,33.08
2022-12-02T21:14:34.706Z,33.60
2022-12-02T21:17:01.809Z,29.67
2022-12-02T21:19:28.776Z,31.08
2022-12-02T21:21:55.872Z,29.65
2022-12-02T21:24:22.759Z,29.75
2022-12-02T21:26:50.804Z,30.65
2022-12-02T21:29:18.058Z,30.98
2022-12-02T21:31:45.126Z,31.23
2022-12-02T21:34:12.088Z,30.63
2022-12-02T21:36:39.199Z,31.83
2022-12-02T21:39:06.303Z,31.50
2022-12-02T21:41:33.504Z,31.65
2022-12-02T21:44:01.119Z,29.48
2022-12-02T21:46:28.543Z,30.17
2022-12-02T21:48:55.845Z,28.38
2022-12-02T21:51:23.086Z,33.65
2022-12-02T21:53:50.167Z,30.10
2022-12-02T21:56:17.132Z,30.27
2022-12-02T21:58:44.271Z,28.67
2022-12-02T22:01:29.966Z,29.23
2022-12-02T22:03:56.871Z,28.98
2022-12-02T22:06:24.039Z,29.15
2022-12-02T22:08:50.940Z,31.40
2022-12-02T22:11:17.912Z,31.77
2022-12-02T22:13:45.111Z,28.80
2022-12-02T22:16:12.268Z,30.73
2022-12-02T22:18:39.276Z,28.98
2022-12-02T22:21:06.495Z,29.35
2022-12-02T22:23:33.395Z,29.35
2022-12-02T22:26:00.781Z,30.10
2022-12-02T22:28:27.805Z,30.15
2022-12-02T22:30:56.677Z,29.60
2022-12-02T22:33:26.469Z,31.88
2022-12-02T22:35:57.419Z,29.15
2022-12-02T22:38:24.364Z,30.85
2022-12-02T22:40:51.889Z,30.20
2022-12-02T22:43:18.885Z,29.15
2022-12-02T22:45:46.257Z,29.35
2022-12-02T22:48:13.638Z,29.08
2022-12-02T22:50:40.565Z,31.50
2022-12-02T22:53:07.925Z,28.73
2022-12-02T22:55:35.233Z,31.08
2022-12-02T22:58:02.184Z,29.35
2022-12-02T23:00:29.120Z,29.13
2022-12-02T23:02:56.166Z,29.17
2022-12-02T23:05:23.083Z,28.67
2022-12-02T23:07:50.269Z,29.25
2022-12-02T23:10:17.291Z,27.30
2022-12-02T23:12:44.530Z,28.50
2022-12-02T23:17:58.575Z,29.38
2022-12-02T23:20:25.729Z,29.42
2022-12-02T23:22:52.644Z,28.83
2022-12-02T23:25:19.889Z,30.73
2022-12-02T23:27:46.828Z,27.60
2022-12-02T23:30:14.133Z,28.52
2022-12-02T23:32:41.402Z,29.33
2022-12-02T23:35:09.094Z,28.15
2022-12-02T23:37:36.315Z,28.30
2022-12-02T23:40:05.382Z,30.67
2022-12-02T23:42:36.753Z,29.55
2022-12-02T23:45:06.848Z,28.58
2022-12-02T23:47:34.070Z,29.42
2022-12-02T23:50:01.124Z,27.35
2022-12-02T23:52:28.119Z,27.85
2022-12-02T23:54:55.528Z,26.83
2022-12-02T23:57:22.574Z,27.30
2022-12-02T23:59:49.646Z,27.25
